Time;durP1;ratioP1;P1;durP2;ratioP2;P2;SDS_P1;SDS_P2;PMS_P1;PMS_P2;Temp;Humidity;BMP_temperature;BMP_pressure;BME280_temperature;BME280_humidity;BME280_pressure;Samples;Min_cycle;Max_cycle;Signal;HPM_P1;HPM_P2
2022/09/14 00:00:47;;;;;;;1.08;0.50;;;;;;;;;;4546265;28;20033;-69
2022/09/14 00:02:57;;;;;;;0.77;0.57;;;;;;;;;;4544818;28;20442;-69
2022/09/14 00:05:08;;;;;;;1.23;0.50;;;;;;;;;;4543161;28;20120;-69
2022/09/14 00:07:18;;;;;;;2.28;0.55;;;;;;;;;;4531709;28;20032;-69
2022/09/14 00:09:29;;;;;;;0.95;0.50;;;;;;;;;;4543995;28;20562;-69
2022/09/14 00:11:40;;;;;;;1.05;0.60;;;;;;;;;;4544383;28;20041;-68
2022/09/14 00:13:51;;;;;;;1.13;0.60;;;;;;;;;;4544856;28;20033;-69
2022/09/14 00:16:07;;;;;;;1.52;0.60;;;;;;;;;;4545206;28;20025;-69
2022/09/14 00:18:17;;;;;;;1.63;0.60;;;;;;;;;;4543927;28;20260;-68
2022/09/14 00:20:29;;;;;;;1.58;0.50;;;;;;;;;;4543418;28;22783;-69
2022/09/14 00:22:39;;;;;;;1.23;0.60;;;;;;;;;;4525857;28;21108;-69
2022/09/14 00:24:50;;;;;;;1.52;0.60;;;;;;;;;;4528154;28;20028;-69
2022/09/14 00:27:01;;;;;;;1.15;0.60;;;;;;;;;;4546406;28;20048;-69
2022/09/14 00:29:12;;;;;;;1.75;0.50;;;;;;;;;;4530246;28;20042;-69
2022/09/14 00:31:23;;;;;;;1.58;0.50;;;;;;;;;;4548179;28;20453;-69
2022/09/14 00:33:34;;;;;;;0.77;0.40;;;;;;;;;;4547515;28;21403;-69
2022/09/14 00:35:45;;;;;;;0.98;0.45;;;;;;;;;;4530525;28;20017;-69
2022/09/14 00:37:55;;;;;;;1.30;0.60;;;;;;;;;;4547632;28;20501;-69
2022/09/14 00:40:06;;;;;;;1.42;0.50;;;;;;;;;;4538997;28;36795;-69
2022/09/14 00:42:18;;;;;;;1.25;0.45;;;;;;;;;;4547925;28;20032;-69
2022/09/14 00:44:28;;;;;;;0.63;0.50;;;;;;;;;;4548316;28;20075;-69
2022/09/14 00:46:44;;;;;;;1.02;0.47;;;;;;;;;;4548138;28;20697;-69
2022/09/14 00:48:58;;;;;;;0.70;0.47;;;;;;;;;;4530714;28;20141;-69
2022/09/14 00:51:09;;;;;;;1.05;0.40;;;;;;;;;;4547304;28;20076;-69
2022/09/14 00:53:20;;;;;;;0.95;0.60;;;;;;;;;;4527168;28;20033;-69
2022/09/14 00:55:32;;;;;;;1.10;0.50;;;;;;;;;;4533940;28;20040;-69
2022/09/14 00:57:48;;;;;;;1.77;0.60;;;;;;;;;;4528783;28;20037;-71
2022/09/14 00:59:58;;;;;;;1.30;0.32;;;;;;;;;;4546004;28;20092;-69
2022/09/14 01:02:10;;;;;;;1.27;0.50;;;;;;;;;;4529211;28;20107;-69
2022/09/14 01:04:21;;;;;;;1.52;0.50;;;;;;;;;;4546212;28;20036;-69
2022/09/14 01:06:42;;;;;;;2.33;0.70;;;;;;;;;;4547747;28;20033;-69
2022/09/14 01:09:15;;;;;;;1.80;0.50;;;;;;;;;;4530221;28;20141;-69
2022/09/14 01:11:31;;;;;;;1.50;0.60;;;;;;;;;;4531542;28;20045;-69
2022/09/14 01:13:50;;;;;;;1.13;0.52;;;;;;;;;;4546780;28;20107;-68
2022/09/14 01:16:19;;;;;;;0.30;0.30;;;;;;;;;;4530600;28;20886;-69
2022/09/14 01:18:43;;;;;;;1.27;0.60;;;;;;;;;;4528013;28;20125;-69
2022/09/14 01:21:00;;;;;;;1.80;0.40;;;;;;;;;;4528394;28;20140;-69
2022/09/14 01:23:26;;;;;;;1.15;0.60;;;;;;;;;;4529627;28;20705;-69
2022/09/14 01:26:15;;;;;;;1.60;0.60;;;;;;;;;;4530149;28;20064;-69
2022/09/14 01:28:31;;;;;;;1.40;0.50;;;;;;;;;;4548485;28;20252;-69
2022/09/14 01:30:43;;;;;;;2.58;0.60;;;;;;;;;;4547982;28;20037;-69
2022/09/14 01:33:00;;;;;;;1.63;0.50;;;;;;;;;;4532107;28;22370;-69
2022/09/14 01:35:21;;;;;;;2.00;0.50;;;;;;;;;;4547993;28;20075;-69
2022/09/14 01:37:40;;;;;;;0.70;0.50;;;;;;;;;;4546220;28;20036;-69
2022/09/14 01:39:54;;;;;;;1.33;0.50;;;;;;;;;;4547927;28;20065;-70
2022/09/14 01:42:05;;;;;;;0.90;0.50;;;;;;;;;;4528027;28;20550;-68
2022/09/14 01:44:21;;;;;;;1.08;0.50;;;;;;;;;;4530287;28;20025;-69
2022/09/14 01:46:39;;;;;;;0.98;0.57;;;;;;;;;;4530104;28;20045;-69
2022/09/14 01:48:55;;;;;;;0.88;0.50;;;;;;;;;;4532705;28;20071;-69
2022/09/14 01:51:12;;;;;;;0.65;0.50;;;;;;;;;;4533589;28;20033;-69
2022/09/14 01:53:46;;;;;;;1.50;0.57;;;;;;;;;;4546169;28;20037;-69
2022/09/14 01:56:00;;;;;;;1.15;0.50;;;;;;;;;;4527197;28;20037;-69
2022/09/14 01:58:16;;;;;;;0.95;0.50;;;;;;;;;;4528447;28;20112;-69
2022/09/14 02:00:27;;;;;;;0.80;0.60;;;;;;;;;;4521325;28;20793;-68
2022/09/14 02:02:40;;;;;;;1.58;0.73;;;;;;;;;;4531319;28;20026;-69
2022/09/14 02:05:02;;;;;;;1.30;0.47;;;;;;;;;;4531693;28;20059;-69
2022/09/14 02:07:13;;;;;;;1.13;0.50;;;;;;;;;;4546620;28;20656;-69
2022/09/14 02:09:25;;;;;;;0.95;0.47;;;;;;;;;;4547877;28;20223;-68
2022/09/14 02:11:36;;;;;;;0.95;0.52;;;;;;;;;;4531281;28;20084;-69
2022/09/14 02:13:47;;;;;;;0.60;0.52;;;;;;;;;;4516157;28;20619;-69
2022/09/14 02:15:57;;;;;;;1.48;0.50;;;;;;;;;;4546446;28;20041;-69
2022/09/14 02:18:08;;;;;;;1.27;0.65;;;;;;;;;;4545290;28;31435;-68
2022/09/14 02:20:36;;;;;;;0.93;0.70;;;;;;;;;;4545896;28;20100;-68
2022/09/14 02:22:49;;;;;;;1.00;0.47;;;;;;;;;;4529498;28;20051;-69
2022/09/14 02:24:59;;;;;;;1.55;0.60;;;;;;;;;;4545952;28;20027;-69
2022/09/14 02:27:10;;;;;;;0.85;0.52;;;;;;;;;;4526760;28;20041;-69
2022/09/14 02:29:20;;;;;;;0.90;0.40;;;;;;;;;;4545910;28;20048;-69
2022/09/14 02:31:41;;;;;;;1.83;0.73;;;;;;;;;;4545273;28;25296;-69
2022/09/14 02:34:09;;;;;;;0.75;0.40;;;;;;;;;;4527570;28;20084;-68
2022/09/14 02:36:48;;;;;;;1.15;0.50;;;;;;;;;;4546620;28;20029;-69
2022/09/14 02:39:15;;;;;;;1.13;0.50;;;;;;;;;;4529986;28;20242;-68
2022/09/14 02:41:55;;;;;;;1.00;0.47;;;;;;;;;;4546010;28;20036;-67
2022/09/14 02:44:25;;;;;;;1.40;0.60;;;;;;;;;;4530534;28;20044;-68
2022/09/14 02:46:44;;;;;;;0.82;0.50;;;;;;;;;;4545855;28;20040;-67
2022/09/14 02:49:16;;;;;;;1.98;0.50;;;;;;;;;;4545819;28;20061;-69
2022/09/14 02:51:33;;;;;;;1.75;0.60;;;;;;;;;;4545417;28;20646;-68
2022/09/14 02:54:00;;;;;;;0.73;0.40;;;;;;;;;;4537150;28;20131;-68
2022/09/14 02:56:11;;;;;;;0.90;0.60;;;;;;;;;;4545078;28;20028;-68
2022/09/14 02:58:21;;;;;;;0.90;0.60;;;;;;;;;;4545926;28;32260;-67
2022/09/14 03:00:35;;;;;;;1.98;0.90;;;;;;;;;;4528099;28;20509;-68
2022/09/14 03:02:45;;;;;;;1.05;0.70;;;;;;;;;;4532545;28;20037;-69
2022/09/14 03:04:56;;;;;;;0.93;0.50;;;;;;;;;;4545343;28;26095;-68
2022/09/14 03:07:07;;;;;;;1.10;0.60;;;;;;;;;;4529873;28;20025;-69
2022/09/14 03:09:18;;;;;;;2.30;0.60;;;;;;;;;;4527822;28;20116;-68
2022/09/14 03:11:28;;;;;;;0.77;0.40;;;;;;;;;;4531574;28;20029;-68
2022/09/14 03:13:39;;;;;;;0.95;0.50;;;;;;;;;;4545881;28;32521;-69
2022/09/14 03:15:49;;;;;;;0.85;0.60;;;;;;;;;;4545573;28;20399;-69
2022/09/14 03:18:00;;;;;;;0.75;0.50;;;;;;;;;;4545091;28;20056;-69
2022/09/14 03:20:10;;;;;;;0.88;0.50;;;;;;;;;;4527156;28;20038;-68
2022/09/14 03:22:21;;;;;;;1.05;0.40;;;;;;;;;;4546816;28;20040;-69
2022/09/14 03:24:31;;;;;;;0.82;0.50;;;;;;;;;;4546651;28;20052;-68
2022/09/14 03:26:42;;;;;;;1.50;0.68;;;;;;;;;;4545925;28;20765;-69
2022/09/14 03:28:57;;;;;;;1.15;0.68;;;;;;;;;;4548318;28;20033;-68
2022/09/14 03:31:09;;;;;;;0.68;0.40;;;;;;;;;;4531990;28;20110;-68
2022/09/14 03:33:19;;;;;;;1.05;0.50;;;;;;;;;;4545107;28;20112;-69
2022/09/14 03:35:31;;;;;;;1.88;0.50;;;;;;;;;;4543899;28;20037;-68
2022/09/14 03:37:42;;;;;;;0.75;0.50;;;;;;;;;;4545228;28;20029;-68
2022/09/14 03:39:53;;;;;;;1.15;0.63;;;;;;;;;;4544678;28;20068;-68
2022/09/14 03:42:03;;;;;;;0.82;0.55;;;;;;;;;;4545945;28;20124;-67
2022/09/14 03:44:13;;;;;;;0.60;0.50;;;;;;;;;;4544859;28;20723;-68
2022/09/14 03:46:24;;;;;;;1.73;0.57;;;;;;;;;;4526952;28;24828;-68
2022/09/14 03:48:35;;;;;;;1.33;0.60;;;;;;;;;;4526967;28;20064;-68
2022/09/14 03:50:45;;;;;;;0.80;0.50;;;;;;;;;;4528677;28;20038;-68
2022/09/14 03:52:56;;;;;;;1.08;0.50;;;;;;;;;;4544944;28;20072;-68
2022/09/14 03:55:08;;;;;;;0.70;0.50;;;;;;;;;;4545625;28;20063;-68
2022/09/14 03:57:18;;;;;;;0.65;0.55;;;;;;;;;;4544995;28;20037;-68
2022/09/14 03:59:28;;;;;;;1.25;0.43;;;;;;;;;;4544717;28;23062;-69
2022/09/14 04:01:39;;;;;;;0.90;0.50;;;;;;;;;;4545568;28;20509;-69
2022/09/14 04:03:50;;;;;;;0.55;0.40;;;;;;;;;;4548335;28;20035;-68
2022/09/14 04:06:04;;;;;;;1.80;0.55;;;;;;;;;;4539509;28;20075;-68
2022/09/14 04:08:14;;;;;;;1.25;0.40;;;;;;;;;;4522676;28;20029;-68
2022/09/14 04:10:24;;;;;;;1.95;0.60;;;;;;;;;;4547320;28;20573;-67
2022/09/14 04:12:36;;;;;;;1.05;0.50;;;;;;;;;;4546230;28;20578;-68
2022/09/14 04:14:47;;;;;;;1.02;0.40;;;;;;;;;;4546436;28;20028;-68
2022/09/14 04:16:57;;;;;;;2.08;0.60;;;;;;;;;;4547472;28;20044;-68
2022/09/14 04:19:08;;;;;;;1.02;0.50;;;;;;;;;;4498050;28;25708;-68
2022/09/14 04:21:21;;;;;;;0.93;0.50;;;;;;;;;;4530123;28;20042;-68
2022/09/14 04:23:32;;;;;;;1.15;0.60;;;;;;;;;;4548491;28;21109;-68
2022/09/14 04:25:42;;;;;;;1.50;0.50;;;;;;;;;;4527916;28;20021;-68
2022/09/14 04:27:53;;;;;;;1.20;0.50;;;;;;;;;;4546960;28;20049;-68
2022/09/14 04:30:05;;;;;;;0.85;0.50;;;;;;;;;;4547020;28;20044;-68
2022/09/14 04:32:15;;;;;;;1.33;0.50;;;;;;;;;;4548071;28;20052;-68
2022/09/14 04:34:26;;;;;;;1.38;0.60;;;;;;;;;;4539411;28;20107;-69
2022/09/14 04:36:36;;;;;;;0.77;0.57;;;;;;;;;;4548578;28;20079;-69
2022/09/14 04:38:47;;;;;;;0.90;0.70;;;;;;;;;;4547448;28;20449;-68
2022/09/14 04:40:58;;;;;;;0.90;0.50;;;;;;;;;;4527929;28;20037;-69
2022/09/14 04:43:08;;;;;;;0.77;0.60;;;;;;;;;;4547284;28;20555;-68
2022/09/14 04:45:19;;;;;;;1.05;0.52;;;;;;;;;;4547071;28;20037;-68
2022/09/14 04:47:29;;;;;;;1.17;0.65;;;;;;;;;;4546761;28;20024;-68
2022/09/14 04:49:39;;;;;;;1.33;0.70;;;;;;;;;;4547627;28;28573;-68
2022/09/14 04:51:50;;;;;;;1.75;0.70;;;;;;;;;;4545996;28;20059;-68
2022/09/14 04:54:01;;;;;;;1.85;0.60;;;;;;;;;;4547622;28;20032;-69
2022/09/14 04:56:13;;;;;;;1.77;0.80;;;;;;;;;;4546515;28;20110;-68
2022/09/14 04:58:23;;;;;;;1.73;0.80;;;;;;;;;;4545756;28;20065;-68
2022/09/14 05:00:35;;;;;;;2.20;1.10;;;;;;;;;;4546788;28;20163;-69
2022/09/14 05:02:46;;;;;;;1.27;0.82;;;;;;;;;;4545537;28;20067;-69
2022/09/14 05:04:57;;;;;;;1.15;0.90;;;;;;;;;;4528479;28;20491;-68
2022/09/14 05:07:08;;;;;;;1.23;0.85;;;;;;;;;;4547083;28;20029;-68
2022/09/14 05:09:19;;;;;;;1.42;0.68;;;;;;;;;;4547528;28;20152;-68
2022/09/14 05:11:32;;;;;;;0.90;0.60;;;;;;;;;;4538243;28;20032;-68
2022/09/14 05:13:42;;;;;;;1.02;0.70;;;;;;;;;;4546878;28;20076;-68
2022/09/14 05:15:53;;;;;;;1.13;0.70;;;;;;;;;;4529499;28;26169;-68
2022/09/14 05:18:04;;;;;;;1.20;0.80;;;;;;;;;;4546758;28;20033;-68
2022/09/14 05:20:14;;;;;;;1.10;0.65;;;;;;;;;;4548359;28;20044;-68
2022/09/14 05:22:25;;;;;;;1.40;0.70;;;;;;;;;;4546498;28;20055;-68
2022/09/14 05:24:35;;;;;;;1.52;0.70;;;;;;;;;;4545510;28;20699;-69
2022/09/14 05:26:46;;;;;;;1.48;0.68;;;;;;;;;;4546459;28;20041;-69
2022/09/14 05:28:58;;;;;;;2.15;0.90;;;;;;;;;;4528011;28;20083;-68
2022/09/14 05:31:10;;;;;;;0.80;0.60;;;;;;;;;;4546825;28;20044;-68
2022/09/14 05:33:21;;;;;;;1.70;0.60;;;;;;;;;;4529851;28;20044;-69
2022/09/14 05:35:31;;;;;;;0.65;0.57;;;;;;;;;;4526903;28;21053;-67
2022/09/14 05:37:42;;;;;;;1.90;0.70;;;;;;;;;;4544604;28;20056;-68
2022/09/14 05:39:52;;;;;;;1.30;0.60;;;;;;;;;;4530444;28;20029;-69
2022/09/14 05:42:03;;;;;;;2.00;0.82;;;;;;;;;;4531458;28;20030;-68
2022/09/14 05:44:13;;;;;;;1.95;0.60;;;;;;;;;;4546966;28;20040;-68
2022/09/14 05:46:24;;;;;;;1.23;0.70;;;;;;;;;;4545925;28;20684;-69
2022/09/14 05:48:36;;;;;;;1.15;0.55;;;;;;;;;;4527944;28;20038;-68
2022/09/14 05:50:46;;;;;;;1.85;0.65;;;;;;;;;;4545419;28;20037;-69
2022/09/14 05:52:57;;;;;;;1.08;0.60;;;;;;;;;;4526479;28;20045;-69
2022/09/14 05:55:07;;;;;;;0.80;0.60;;;;;;;;;;4545634;28;20451;-68
2022/09/14 05:57:18;;;;;;;0.75;0.68;;;;;;;;;;4545023;28;20068;-69
2022/09/14 05:59:30;;;;;;;1.27;0.73;;;;;;;;;;4545418;28;20123;-71
2022/09/14 06:01:40;;;;;;;0.90;0.60;;;;;;;;;;4544913;28;20824;-69
2022/09/14 06:03:56;;;;;;;1.33;0.65;;;;;;;;;;4538059;28;20025;-68
2022/09/14 06:06:07;;;;;;;0.60;0.60;;;;;;;;;;4546216;28;20151;-69
2022/09/14 06:08:18;;;;;;;1.38;0.77;;;;;;;;;;4526693;28;20037;-69
2022/09/14 06:10:28;;;;;;;1.23;0.65;;;;;;;;;;4546303;28;20033;-68
2022/09/14 06:12:39;;;;;;;1.33;0.50;;;;;;;;;;4546184;28;20493;-69
2022/09/14 06:14:49;;;;;;;1.58;0.90;;;;;;;;;;4546112;28;20032;-69
2022/09/14 06:17:00;;;;;;;0.95;0.70;;;;;;;;;;4545875;28;20495;-68
2022/09/14 06:19:11;;;;;;;2.55;0.88;;;;;;;;;;4546055;28;20406;-72
2022/09/14 06:21:29;;;;;;;1.38;0.65;;;;;;;;;;4544987;28;20036;-69
2022/09/14 06:23:40;;;;;;;2.22;0.70;;;;;;;;;;4503780;28;20034;-69
2022/09/14 06:25:53;;;;;;;0.80;0.60;;;;;;;;;;4546137;28;20486;-68
2022/09/14 06:28:03;;;;;;;1.20;0.65;;;;;;;;;;4538118;28;20647;-68
2022/09/14 06:30:15;;;;;;;1.00;0.55;;;;;;;;;;4546541;28;20060;-68
2022/09/14 06:32:26;;;;;;;0.98;0.60;;;;;;;;;;4547628;28;20079;-68
2022/09/14 06:34:36;;;;;;;0.80;0.60;;;;;;;;;;4526157;28;20479;-69
2022/09/14 06:36:47;;;;;;;0.98;0.70;;;;;;;;;;4546153;28;20148;-69
2022/09/14 06:38:58;;;;;;;1.17;0.80;;;;;;;;;;4546046;28;20518;-70
2022/09/14 06:41:13;;;;;;;1.52;0.70;;;;;;;;;;4526150;28;20724;-69
2022/09/14 06:43:25;;;;;;;1.33;0.70;;;;;;;;;;4545405;28;20041;-69
2022/09/14 06:45:36;;;;;;;1.30;0.80;;;;;;;;;;4524970;28;20747;-68
2022/09/14 06:47:46;;;;;;;1.90;0.75;;;;;;;;;;4546961;28;20040;-68
2022/09/14 06:49:57;;;;;;;1.27;0.80;;;;;;;;;;4548100;28;20032;-70
2022/09/14 06:52:08;;;;;;;2.30;0.75;;;;;;;;;;4546154;28;20040;-69
2022/09/14 06:54:18;;;;;;;0.95;0.80;;;;;;;;;;4544659;28;20445;-70
2022/09/14 06:56:37;;;;;;;1.10;0.80;;;;;;;;;;4526862;28;20091;-68
2022/09/14 06:58:48;;;;;;;1.73;1.02;;;;;;;;;;4537014;28;20303;-69
2022/09/14 07:01:06;;;;;;;1.52;0.80;;;;;;;;;;4545251;28;20219;-68
2022/09/14 07:03:18;;;;;;;1.02;0.60;;;;;;;;;;4546058;28;20103;-68
2022/09/14 07:05:29;;;;;;;0.93;0.70;;;;;;;;;;4545859;28;20033;-69
2022/09/14 07:07:40;;;;;;;1.58;0.80;;;;;;;;;;4526498;28;20153;-69
2022/09/14 07:09:50;;;;;;;2.25;0.70;;;;;;;;;;4545091;28;20985;-68
2022/09/14 07:12:01;;;;;;;0.90;0.65;;;;;;;;;;4529992;28;20043;-69
2022/09/14 07:14:11;;;;;;;1.55;0.88;;;;;;;;;;4544334;28;20029;-69
2022/09/14 07:16:23;;;;;;;0.80;0.73;;;;;;;;;;4528073;28;20121;-68
2022/09/14 07:18:34;;;;;;;1.20;0.80;;;;;;;;;;4544379;28;20036;-69
2022/09/14 07:20:45;;;;;;;1.95;0.80;;;;;;;;;;4544018;28;20029;-68
2022/09/14 07:22:55;;;;;;;1.15;0.90;;;;;;;;;;4544005;28;20037;-69
2022/09/14 07:25:06;;;;;;;0.73;0.57;;;;;;;;;;4544594;28;20502;-69
2022/09/14 07:27:17;;;;;;;1.10;0.90;;;;;;;;;;4526896;28;20499;-68
2022/09/14 07:29:27;;;;;;;1.00;0.70;;;;;;;;;;4537521;28;20033;-69
2022/09/14 07:31:47;;;;;;;0.85;0.70;;;;;;;;;;4545348;28;20032;-70
2022/09/14 07:34:00;;;;;;;1.10;0.80;;;;;;;;;;4545832;28;20075;-69
2022/09/14 07:36:11;;;;;;;1.67;0.90;;;;;;;;;;4546776;28;20064;-68
2022/09/14 07:38:21;;;;;;;0.80;0.73;;;;;;;;;;4549790;28;20119;-67
2022/09/14 07:40:32;;;;;;;2.08;0.80;;;;;;;;;;4547640;28;22882;-69
2022/09/14 07:42:42;;;;;;;1.00;0.73;;;;;;;;;;4547642;28;20033;-69
2022/09/14 07:44:53;;;;;;;1.23;0.80;;;;;;;;;;4548089;28;20282;-67
2022/09/14 07:47:03;;;;;;;1.35;1.00;;;;;;;;;;4548203;28;20724;-68
2022/09/14 07:49:15;;;;;;;0.65;0.65;;;;;;;;;;4547436;28;20103;-70
2022/09/14 07:51:27;;;;;;;1.25;0.90;;;;;;;;;;4529064;28;20116;-68
2022/09/14 07:53:41;;;;;;;1.42;0.75;;;;;;;;;;4548229;28;20075;-67
2022/09/14 07:55:51;;;;;;;1.02;0.90;;;;;;;;;;4549287;28;20545;-67
2022/09/14 07:58:02;;;;;;;1.85;1.00;;;;;;;;;;4530887;28;20041;-68
2022/09/14 08:00:13;;;;;;;1.38;0.88;;;;;;;;;;4517102;28;23053;-68
2022/09/14 08:02:27;;;;;;;1.70;1.00;;;;;;;;;;4569055;22;20517;-70
2022/09/14 08:04:38;;;;;;;1.48;0.85;;;;;;;;;;4571846;28;20593;-71
2022/09/14 08:06:48;;;;;;;1.30;1.00;;;;;;;;;;4573267;28;20052;-71
2022/09/14 08:08:59;;;;;;;0.80;0.70;;;;;;;;;;4572638;28;20130;-71
2022/09/14 08:11:15;;;;;;;1.23;0.65;;;;;;;;;;4573210;28;20055;-72
2022/09/14 08:13:25;;;;;;;1.77;0.75;;;;;;;;;;4556861;28;20136;-71
2022/09/14 08:15:36;;;;;;;2.10;0.80;;;;;;;;;;4572028;28;20138;-71
2022/09/14 08:17:46;;;;;;;2.80;0.80;;;;;;;;;;4571124;28;20502;-71
2022/09/14 08:19:56;;;;;;;1.65;0.80;;;;;;;;;;4574059;28;20115;-70
2022/09/14 08:22:07;;;;;;;0.80;0.80;;;;;;;;;;4554493;28;20083;-71
2022/09/14 08:24:20;;;;;;;0.85;0.70;;;;;;;;;;4553558;28;20060;-71
2022/09/14 08:26:30;;;;;;;0.80;0.63;;;;;;;;;;4565208;28;20106;-71
2022/09/14 08:28:41;;;;;;;1.23;0.68;;;;;;;;;;4554482;28;20055;-71
2022/09/14 08:30:51;;;;;;;1.30;0.80;;;;;;;;;;4572094;28;20066;-71
2022/09/14 08:33:02;;;;;;;2.40;0.80;;;;;;;;;;4572248;28;20040;-71
2022/09/14 08:35:12;;;;;;;1.02;0.63;;;;;;;;;;4555292;28;20729;-70
2022/09/14 08:37:23;;;;;;;1.48;0.90;;;;;;;;;;4556884;28;20131;-71
2022/09/14 08:39:33;;;;;;;0.80;0.73;;;;;;;;;;4572139;28;20412;-70
2022/09/14 08:41:53;;;;;;;0.90;0.70;;;;;;;;;;4554562;28;20705;-71
2022/09/14 08:44:13;;;;;;;1.48;0.80;;;;;;;;;;4572446;28;20159;-71
2022/09/14 08:46:35;;;;;;;1.70;0.90;;;;;;;;;;4558320;28;20207;-71
2022/09/14 08:48:48;;;;;;;1.30;0.85;;;;;;;;;;4551878;28;20052;-71
2022/09/14 08:50:58;;;;;;;1.25;0.82;;;;;;;;;;4553117;28;20056;-71
2022/09/14 08:53:08;;;;;;;2.80;0.90;;;;;;;;;;4552037;28;20056;-71
2022/09/14 08:55:41;;;;;;;1.25;0.68;;;;;;;;;;4571250;28;20873;-71
2022/09/14 08:58:11;;;;;;;1.05;0.75;;;;;;;;;;4540281;28;20045;-71
2022/09/14 09:00:24;;;;;;;1.20;0.80;;;;;;;;;;4572485;28;20590;-71
2022/09/14 09:02:46;;;;;;;2.05;0.80;;;;;;;;;;4540063;28;20057;-71
2022/09/14 09:05:17;;;;;;;0.90;0.60;;;;;;;;;;4555089;28;20048;-70
2022/09/14 09:07:37;;;;;;;0.93;0.63;;;;;;;;;;4556227;28;20127;-70
2022/09/14 09:09:52;;;;;;;1.23;0.80;;;;;;;;;;4551002;28;20083;-70
2022/09/14 09:12:04;;;;;;;1.33;0.80;;;;;;;;;;4563584;28;20037;-70
2022/09/14 09:14:19;;;;;;;2.20;0.80;;;;;;;;;;4570207;28;20052;-71
2022/09/14 09:16:29;;;;;;;0.90;0.70;;;;;;;;;;4557113;28;20049;-71
2022/09/14 09:18:46;;;;;;;1.88;0.80;;;;;;;;;;4557560;28;20497;-71
2022/09/14 09:21:18;;;;;;;1.83;0.73;;;;;;;;;;4554698;28;20745;-70
2022/09/14 09:23:29;;;;;;;1.80;0.70;;;;;;;;;;4542059;28;20048;-71
2022/09/14 09:25:59;;;;;;;1.45;0.90;;;;;;;;;;4570653;28;20056;-70
2022/09/14 09:28:11;;;;;;;1.25;0.80;;;;;;;;;;4569983;28;20595;-71
2022/09/14 09:30:21;;;;;;;1.52;0.80;;;;;;;;;;4563125;28;20598;-71
2022/09/14 09:32:33;;;;;;;0.90;0.65;;;;;;;;;;4552308;28;20102;-71
2022/09/14 09:35:21;;;;;;;1.38;0.70;;;;;;;;;;4543229;28;20033;-71
2022/09/14 09:37:54;;;;;;;1.58;0.80;;;;;;;;;;4560374;28;20047;-71
2022/09/14 09:40:14;;;;;;;1.92;0.90;;;;;;;;;;4538485;28;20164;-72
2022/09/14 09:42:27;;;;;;;1.75;0.95;;;;;;;;;;4539731;28;20123;-72
2022/09/14 09:45:04;;;;;;;1.55;0.80;;;;;;;;;;4545012;28;20044;-72
2022/09/14 09:47:15;;;;;;;1.10;0.70;;;;;;;;;;4551947;28;20041;-71
2022/09/14 09:49:28;;;;;;;1.20;0.70;;;;;;;;;;4562490;28;20275;-72
2022/09/14 09:51:39;;;;;;;1.27;0.73;;;;;;;;;;4556632;28;20630;-71
2022/09/14 09:53:52;;;;;;;1.60;0.90;;;;;;;;;;4557610;28;20049;-72
2022/09/14 09:56:03;;;;;;;1.55;0.80;;;;;;;;;;4562844;28;20059;-72
2022/09/14 09:58:28;;;;;;;1.73;0.80;;;;;;;;;;4551906;28;20231;-72
2022/09/14 10:00:38;;;;;;;1.30;0.75;;;;;;;;;;4569825;28;20045;-74
2022/09/14 10:02:49;;;;;;;1.05;0.68;;;;;;;;;;4562585;28;20048;-73
2022/09/14 10:05:05;;;;;;;1.67;0.80;;;;;;;;;;4551655;28;20049;-74
2022/09/14 10:07:20;;;;;;;0.73;0.60;;;;;;;;;;4555196;28;20168;-74
2022/09/14 10:09:31;;;;;;;1.98;0.70;;;;;;;;;;4555144;28;21277;-74
2022/09/14 10:11:42;;;;;;;2.80;0.93;;;;;;;;;;4550837;28;20040;-73
2022/09/14 10:13:52;;;;;;;1.80;1.08;;;;;;;;;;4552500;28;20051;-75
2022/09/14 10:16:13;;;;;;;1.52;0.90;;;;;;;;;;4552127;28;20041;-73
2022/09/14 10:18:24;;;;;;;1.65;0.90;;;;;;;;;;4551665;28;20653;-73
2022/09/14 10:20:43;;;;;;;1.95;0.90;;;;;;;;;;4561086;28;20044;-73
2022/09/14 10:22:54;;;;;;;1.60;0.73;;;;;;;;;;4555599;28;20054;-73
2022/09/14 10:25:13;;;;;;;1.17;1.00;;;;;;;;;;4570722;28;20053;-74
2022/09/14 10:27:36;;;;;;;2.50;0.90;;;;;;;;;;4569902;28;20051;-74
2022/09/14 10:29:48;;;;;;;2.90;1.00;;;;;;;;;;4552635;28;20041;-72
2022/09/14 10:32:04;;;;;;;2.25;1.00;;;;;;;;;;4538128;28;20083;-71
2022/09/14 10:34:18;;;;;;;1.33;0.88;;;;;;;;;;4556107;28;20144;-72
2022/09/14 10:36:30;;;;;;;2.80;1.00;;;;;;;;;;4568035;28;20554;-71
2022/09/14 10:38:44;;;;;;;2.47;1.08;;;;;;;;;;4568676;28;20144;-72
2022/09/14 10:41:07;;;;;;;2.17;0.85;;;;;;;;;;4569662;28;20048;-72
2022/09/14 10:43:59;;;;;;;1.48;0.90;;;;;;;;;;4539422;28;20776;-72
2022/09/14 10:46:12;;;;;;;1.50;0.80;;;;;;;;;;4568315;28;20060;-72
2022/09/14 10:49:01;;;;;;;1.63;0.90;;;;;;;;;;4553021;28;20661;-72
2022/09/14 10:51:15;;;;;;;1.75;1.02;;;;;;;;;;4496624;28;20276;-73
2022/09/14 10:53:40;;;;;;;1.42;1.15;;;;;;;;;;4547643;28;20715;-72
2022/09/14 10:56:02;;;;;;;1.42;1.00;;;;;;;;;;4554572;28;20049;-72
2022/09/14 10:58:35;;;;;;;1.75;0.90;;;;;;;;;;4544792;28;20037;-72
2022/09/14 11:01:01;;;;;;;1.38;0.90;;;;;;;;;;4570291;28;20048;-72
2022/09/14 11:03:16;;;;;;;2.78;1.00;;;;;;;;;;4551515;28;20143;-72
2022/09/14 11:05:30;;;;;;;2.20;0.93;;;;;;;;;;4546463;28;20057;-72
2022/09/14 11:08:01;;;;;;;1.23;0.90;;;;;;;;;;4554609;28;20049;-72
2022/09/14 11:10:21;;;;;;;2.28;1.00;;;;;;;;;;4547996;28;20132;-72
2022/09/14 11:12:50;;;;;;;1.33;0.90;;;;;;;;;;4553524;28;20623;-72
2022/09/14 11:15:25;;;;;;;1.67;1.00;;;;;;;;;;4569222;28;20044;-72
2022/09/14 11:18:13;;;;;;;1.73;1.08;;;;;;;;;;4566988;28;20143;-72
2022/09/14 11:20:35;;;;;;;0.80;0.80;;;;;;;;;;4569733;28;21289;-72
2022/09/14 11:22:50;;;;;;;1.80;0.95;;;;;;;;;;4550903;28;20040;-71
2022/09/14 11:25:11;;;;;;;1.08;0.90;;;;;;;;;;4553003;28;20052;-72
2022/09/14 11:27:25;;;;;;;1.85;1.08;;;;;;;;;;4569664;28;20214;-72
2022/09/14 11:29:39;;;;;;;2.50;1.08;;;;;;;;;;4551381;28;20110;-71
2022/09/14 11:31:53;;;;;;;1.25;1.00;;;;;;;;;;4568488;28;20606;-73
2022/09/14 11:34:15;;;;;;;1.40;0.90;;;;;;;;;;4569803;28;20028;-72
2022/09/14 11:36:33;;;;;;;1.13;0.93;;;;;;;;;;4561397;28;20044;-72
2022/09/14 11:39:15;;;;;;;1.05;0.95;;;;;;;;;;4551274;28;21018;-72
2022/09/14 11:41:31;;;;;;;1.30;0.98;;;;;;;;;;4568481;28;20063;-73
2022/09/14 11:43:51;;;;;;;1.55;1.00;;;;;;;;;;4544123;28;20127;-72
2022/09/14 11:46:15;;;;;;;1.35;0.90;;;;;;;;;;4569672;28;20105;-71
2022/09/14 11:48:39;;;;;;;1.58;1.08;;;;;;;;;;4569299;28;20840;-72
2022/09/14 11:50:53;;;;;;;1.83;1.00;;;;;;;;;;4568616;28;20048;-72
2022/09/14 11:53:11;;;;;;;1.33;1.02;;;;;;;;;;4554638;28;20613;-72
2022/09/14 11:55:22;;;;;;;2.13;1.10;;;;;;;;;;4566863;28;20036;-72
2022/09/14 11:57:33;;;;;;;1.58;1.00;;;;;;;;;;4569464;28;20039;-72
2022/09/14 11:59:49;;;;;;;1.65;1.00;;;;;;;;;;4541732;28;20051;-72
2022/09/14 12:02:22;;;;;;;2.08;1.00;;;;;;;;;;4543768;28;20045;-71
2022/09/14 12:04:32;;;;;;;1.90;1.10;;;;;;;;;;4567575;28;20040;-72
2022/09/14 12:06:48;;;;;;;1.17;1.00;;;;;;;;;;4550865;28;21113;-72
2022/09/14 12:09:20;;;;;;;1.73;1.17;;;;;;;;;;4541033;28;20068;-70
2022/09/14 12:11:32;;;;;;;0.95;0.85;;;;;;;;;;4537073;28;20061;-71
2022/09/14 12:13:42;;;;;;;1.88;0.90;;;;;;;;;;4560141;28;20056;-70
2022/09/14 12:16:04;;;;;;;1.83;1.00;;;;;;;;;;4552981;28;20131;-70
2022/09/14 12:18:21;;;;;;;1.70;1.13;;;;;;;;;;4568381;28;20128;-71
2022/09/14 12:20:34;;;;;;;1.98;1.00;;;;;;;;;;4561239;28;20072;-70
2022/09/14 12:22:45;;;;;;;1.27;0.95;;;;;;;;;;4572050;27;20103;-70
2022/09/14 12:25:07;;;;;;;1.33;1.00;;;;;;;;;;4557851;28;20036;-70
2022/09/14 12:27:20;;;;;;;1.42;0.90;;;;;;;;;;4573265;28;20040;-70
2022/09/14 12:29:32;;;;;;;1.15;0.98;;;;;;;;;;4557408;28;20121;-70
2022/09/14 12:31:43;;;;;;;1.70;1.00;;;;;;;;;;4553510;28;20087;-70
2022/09/14 12:34:26;;;;;;;1.75;1.00;;;;;;;;;;4560054;28;20106;-70
2022/09/14 12:36:37;;;;;;;1.80;1.10;;;;;;;;;;4533396;28;20057;-70
2022/09/14 12:38:56;;;;;;;2.20;1.10;;;;;;;;;;4554557;28;20041;-70
2022/09/14 12:41:07;;;;;;;1.67;1.20;;;;;;;;;;4572038;28;20964;-71
2022/09/14 12:43:33;;;;;;;1.73;1.10;;;;;;;;;;4555356;28;20036;-72
2022/09/14 12:45:59;;;;;;;1.63;1.20;;;;;;;;;;4573646;28;20613;-71
2022/09/14 12:48:10;;;;;;;1.48;1.10;;;;;;;;;;4556498;28;21254;-69
2022/09/14 12:50:21;;;;;;;1.67;1.23;;;;;;;;;;4555462;28;20055;-70
2022/09/14 12:52:43;;;;;;;1.90;1.02;;;;;;;;;;4553992;28;20811;-70
2022/09/14 12:55:23;;;;;;;2.17;1.05;;;;;;;;;;4569509;28;20051;-70
2022/09/14 12:57:43;;;;;;;2.13;1.15;;;;;;;;;;4528775;28;20893;-69
2022/09/14 13:00:03;;;;;;;2.95;1.48;;;;;;;;;;4553703;28;20029;-70
2022/09/14 13:02:33;;;;;;;1.70;1.40;;;;;;;;;;4556909;28;20041;-70
2022/09/14 13:04:46;;;;;;;1.98;1.45;;;;;;;;;;4571706;28;20093;-71
2022/09/14 13:06:58;;;;;;;2.17;1.30;;;;;;;;;;4557741;28;20054;-71
2022/09/14 13:09:16;;;;;;;1.60;1.20;;;;;;;;;;4557657;28;20084;-71
2022/09/14 13:11:35;;;;;;;2.03;1.10;;;;;;;;;;4556878;28;20041;-72
2022/09/14 13:13:46;;;;;;;1.65;1.00;;;;;;;;;;4557601;28;20056;-71
2022/09/14 13:16:07;;;;;;;2.05;0.88;;;;;;;;;;4569723;28;20611;-71
2022/09/14 13:18:17;;;;;;;1.60;0.70;;;;;;;;;;4547040;28;20037;-71
2022/09/14 13:20:29;;;;;;;0.98;0.82;;;;;;;;;;4546385;28;20505;-71
2022/09/14 13:22:41;;;;;;;1.02;0.77;;;;;;;;;;4539256;28;20057;-70
2022/09/14 13:24:52;;;;;;;1.77;0.70;;;;;;;;;;4552680;28;20051;-70
2022/09/14 13:27:03;;;;;;;1.60;0.63;;;;;;;;;;4557105;28;20043;-68
2022/09/14 13:29:14;;;;;;;0.90;0.80;;;;;;;;;;4556814;28;20726;-69